createdAt,value
2019-05-25T00:00:32.310Z,8.93
2019-05-25T00:02:58.167Z,8.93
2019-05-25T00:05:24.421Z,5.70
2019-05-25T00:07:50.660Z,9.00
2019-05-25T00:10:17.198Z,8.88
2019-05-25T00:12:43.422Z,11.30
2019-05-25T00:15:09.361Z,9.25
2019-05-25T00:17:35.474Z,10.72
2019-05-25T00:20:02.049Z,9.65
2019-05-25T00:22:28.336Z,5.12
2019-05-25T00:24:54.568Z,10.00
2019-05-25T00:27:20.803Z,6.65
2019-05-25T00:29:47.022Z,9.10
2019-05-25T00:32:13.258Z,7.08
2019-05-25T00:34:39.519Z,9.50
2019-05-25T00:37:05.348Z,7.28
2019-05-25T00:39:31.187Z,6.90
2019-05-25T00:41:57.353Z,9.85
2019-05-25T00:44:23.581Z,10.85
2019-05-25T00:46:49.857Z,9.43
2019-05-25T00:49:15.690Z,8.75
2019-05-25T00:51:41.540Z,10.50
2019-05-25T00:54:07.677Z,9.95
2019-05-25T00:56:33.898Z,8.28
2019-05-25T00:58:59.727Z,7.35
2019-05-25T01:01:25.549Z,7.58
2019-05-25T01:03:51.781Z,7.75
2019-05-25T01:06:18.001Z,6.20
2019-05-25T01:08:44.234Z,6.03
2019-05-25T01:11:10.112Z,8.28
2019-05-25T01:13:36.290Z,6.03
2019-05-25T01:16:02.516Z,9.78
2019-05-25T01:18:28.395Z,9.83
2019-05-25T01:20:54.566Z,7.70
2019-05-25T01:23:20.447Z,6.47
2019-05-25T01:25:46.709Z,10.08
2019-05-25T01:28:13.257Z,8.73
2019-05-25T01:30:39.041Z,9.10
2019-05-25T01:33:04.869Z,9.35
2019-05-25T01:35:30.738Z,11.53
2019-05-25T01:37:56.599Z,5.95
2019-05-25T01:40:22.439Z,8.58
2019-05-25T01:42:49.019Z,6.17
2019-05-25T01:45:14.966Z,7.80
2019-05-25T01:47:41.566Z,9.10
2019-05-25T01:50:07.388Z,7.53
2019-05-25T01:52:33.258Z,6.10
2019-05-25T01:55:00.445Z,8.28
2019-05-25T01:57:26.489Z,9.05
2019-05-25T01:59:52.651Z,10.13
2019-05-25T02:02:18.550Z,8.23
2019-05-25T02:04:44.698Z,7.30
2019-05-25T02:07:10.650Z,8.03
2019-05-25T02:09:37.176Z,6.85
2019-05-25T02:12:02.934Z,6.55
2019-05-25T02:14:28.794Z,8.78
2019-05-25T02:16:54.653Z,10.13
2019-05-25T02:19:20.528Z,7.90
2019-05-25T02:21:46.357Z,10.48
2019-05-25T02:24:12.512Z,5.17
2019-05-25T02:26:38.744Z,10.95
2019-05-25T02:29:04.574Z,10.53
2019-05-25T02:31:30.700Z,11.65
2019-05-25T02:33:56.543Z,10.70
2019-05-25T02:36:22.629Z,11.28
2019-05-25T02:38:48.463Z,13.98
2019-05-25T02:41:14.307Z,9.68
2019-05-25T02:43:40.593Z,9.48
2019-05-25T02:46:06.454Z,11.90
2019-05-25T02:48:32.885Z,10.72
2019-05-25T02:50:58.773Z,9.58
2019-05-25T02:53:24.754Z,12.10
2019-05-25T02:55:50.594Z,12.05
2019-05-25T02:58:16.423Z,11.88
2019-05-25T03:00:42.299Z,10.03
2019-05-25T03:03:08.147Z,10.60
2019-05-25T03:05:34.006Z,10.70
2019-05-25T03:07:59.852Z,13.22
2019-05-25T03:10:25.680Z,12.53
2019-05-25T03:12:52.473Z,11.95
2019-05-25T03:15:18.581Z,13.85
2019-05-25T03:17:44.456Z,12.30
2019-05-25T03:20:10.311Z,11.50
2019-05-25T03:22:36.780Z,19.62
2019-05-25T03:25:06.270Z,16.57
2019-05-25T03:27:32.510Z,18.23
2019-05-25T03:29:58.418Z,14.25
2019-05-25T03:32:24.197Z,19.20
2019-05-25T03:34:50.378Z,13.68
2019-05-25T03:37:16.606Z,17.98
2019-05-25T03:39:42.834Z,14.60
2019-05-25T03:42:08.683Z,13.28
2019-05-25T03:44:34.554Z,15.88
2019-05-25T03:47:00.396Z,12.35
2019-05-25T03:49:26.513Z,14.18
2019-05-25T03:51:52.369Z,14.70
2019-05-25T03:54:18.565Z,17.62
2019-05-25T03:56:44.789Z,12.05
2019-05-25T03:59:11.022Z,19.35
2019-05-25T04:01:37.357Z,16.70
2019-05-25T04:04:03.243Z,23.85
2019-05-25T04:06:29.090Z,14.90
2019-05-25T04:08:54.906Z,23.05
2019-05-25T04:11:20.775Z,17.57
2019-05-25T04:13:47.288Z,22.93
2019-05-25T04:16:13.148Z,26.20
2019-05-25T04:18:39.745Z,20.48
2019-05-25T04:21:05.986Z,17.87
2019-05-25T04:23:31.935Z,19.48
2019-05-25T04:25:57.825Z,19.75
2019-05-25T04:28:24.271Z,18.00
2019-05-25T04:30:50.129Z,20.57
2019-05-25T04:33:16.071Z,21.30
2019-05-25T04:35:41.896Z,18.75
2019-05-25T04:38:08.352Z,21.93
2019-05-25T04:40:34.577Z,19.48
2019-05-25T04:43:00.417Z,19.65
2019-05-25T04:45:26.281Z,23.22
2019-05-25T04:47:52.158Z,18.00
2019-05-25T04:50:18.008Z,17.77
2019-05-25T04:52:43.856Z,25.55
2019-05-25T04:55:10.088Z,22.82
2019-05-25T04:57:36.548Z,17.15
2019-05-25T05:00:04.423Z,15.58
2019-05-25T05:02:30.254Z,17.85
2019-05-25T05:04:56.132Z,17.98
2019-05-25T05:07:21.979Z,18.50
2019-05-25T05:10:01.805Z,13.32
2019-05-25T05:12:16.305Z,19.82
2019-05-25T05:14:42.599Z,14.93
2019-05-25T05:17:08.439Z,20.60
2019-05-25T05:19:34.927Z,15.63
2019-05-25T05:22:01.480Z,18.52
2019-05-25T05:24:27.807Z,14.18
2019-05-25T05:26:56.161Z,16.93
2019-05-25T05:29:21.934Z,19.07
2019-05-25T05:31:47.791Z,13.45
2019-05-25T05:34:13.970Z,14.65
2019-05-25T05:36:39.804Z,18.15
2019-05-25T05:39:06.729Z,17.73
2019-05-25T05:41:32.611Z,23.50
2019-05-25T05:43:58.441Z,17.12
2019-05-25T05:46:24.274Z,16.05
2019-05-25T05:48:50.872Z,18.00
2019-05-25T05:51:18.638Z,13.32
2019-05-25T05:53:45.133Z,17.30
2019-05-25T05:56:11.601Z,16.20
2019-05-25T05:58:37.947Z,19.25
2019-05-25T06:01:04.564Z,17.57
2019-05-25T06:03:30.427Z,17.55
2019-05-25T06:05:56.614Z,16.85
2019-05-25T06:08:22.843Z,15.03
2019-05-25T06:10:49.076Z,18.50
2019-05-25T06:13:14.916Z,16.70
2019-05-25T06:15:40.807Z,14.43
2019-05-25T06:18:06.636Z,18.27
2019-05-25T06:20:32.851Z,14.45
2019-05-25T06:22:58.769Z,17.48
2019-05-25T06:25:24.902Z,15.85
2019-05-25T06:27:50.721Z,12.85
2019-05-25T06:30:16.643Z,13.90
2019-05-25T06:32:42.533Z,13.90
2019-05-25T06:35:08.556Z,13.75
2019-05-25T06:37:34.371Z,13.62
2019-05-25T06:40:01.262Z,10.43
2019-05-25T06:42:27.097Z,21.65
2019-05-25T06:44:52.975Z,12.82
2019-05-25T06:47:18.814Z,16.95
2019-05-25T06:49:44.645Z,10.75
2019-05-25T06:52:10.962Z,15.85
2019-05-25T06:54:36.814Z,15.10
2019-05-25T06:57:02.955Z,16.70
2019-05-25T06:59:29.562Z,13.45
2019-05-25T07:01:55.729Z,18.75
2019-05-25T07:04:22.034Z,18.40
2019-05-25T07:06:47.854Z,17.02
2019-05-25T07:09:16.019Z,16.07
2019-05-25T07:11:43.329Z,14.90
2019-05-25T07:14:09.183Z,17.27
2019-05-25T07:16:35.382Z,18.95
2019-05-25T07:19:01.584Z,15.03
2019-05-25T07:21:27.405Z,14.47
2019-05-25T07:23:54.003Z,12.70
2019-05-25T07:26:19.836Z,17.42
2019-05-25T07:28:46.006Z,16.57
2019-05-25T07:31:11.869Z,15.83
2019-05-25T07:33:37.990Z,14.40
2019-05-25T07:36:07.604Z,14.55
2019-05-25T07:38:31.930Z,15.95
2019-05-25T07:40:57.872Z,18.55
2019-05-25T07:43:23.747Z,16.02
2019-05-25T07:45:49.958Z,18.50
2019-05-25T07:48:16.200Z,20.00
2019-05-25T07:50:42.433Z,24.18
2019-05-25T07:53:08.280Z,17.15
2019-05-25T07:55:34.218Z,20.25
2019-05-25T07:58:15.561Z,16.93
2019-05-25T08:00:28.329Z,19.80
2019-05-25T08:02:54.807Z,18.40
2019-05-25T08:05:21.144Z,18.85
2019-05-25T08:07:47.259Z,20.82
2019-05-25T08:10:13.871Z,22.25
2019-05-25T08:12:40.148Z,30.43
2019-05-25T08:15:07.188Z,26.93
2019-05-25T08:17:33.502Z,27.35
2019-05-25T08:19:59.336Z,29.57
2019-05-25T08:22:25.195Z,29.52
2019-05-25T08:24:51.424Z,26.40
2019-05-25T08:27:17.832Z,29.63
2019-05-25T08:29:44.105Z,23.02
2019-05-25T08:32:10.286Z,21.95
2019-05-25T08:34:36.510Z,23.92
2019-05-25T08:37:02.840Z,30.85
2019-05-25T08:39:28.686Z,23.77
2019-05-25T08:41:55.205Z,19.85
2019-05-25T08:44:21.064Z,20.57
2019-05-25T08:46:48.479Z,22.82
2019-05-25T08:49:14.312Z,16.42
2019-05-25T08:51:41.349Z,20.43
2019-05-25T08:54:07.590Z,20.75
2019-05-25T08:56:34.222Z,17.73
2019-05-25T08:59:00.056Z,19.05
2019-05-25T09:01:25.918Z,16.60
2019-05-25T09:03:51.789Z,17.35
2019-05-25T09:06:17.909Z,18.77
2019-05-25T09:08:43.803Z,16.85
2019-05-25T09:11:10.374Z,20.20
2019-05-25T09:13:41.032Z,19.15
2019-05-25T09:16:07.201Z,18.60
2019-05-25T09:18:33.702Z,16.67
2019-05-25T09:20:59.918Z,19.67
2019-05-25T09:23:26.153Z,19.67
2019-05-25T09:25:53.467Z,19.50
2019-05-25T09:28:19.297Z,18.40
2019-05-25T09:30:45.170Z,20.20
2019-05-25T09:33:11.018Z,18.40
2019-05-25T09:35:36.863Z,18.70
2019-05-25T09:38:02.737Z,17.52
2019-05-25T09:40:28.813Z,16.10
2019-05-25T09:42:54.812Z,18.82
2019-05-25T09:45:20.696Z,19.25
2019-05-25T09:47:46.533Z,22.50
2019-05-25T09:50:12.720Z,17.85
2019-05-25T09:52:38.511Z,17.95
2019-05-25T09:55:07.396Z,25.72
2019-05-25T09:57:33.235Z,19.52
2019-05-25T09:59:59.070Z,19.77
2019-05-25T10:02:24.945Z,18.92
2019-05-25T10:04:51.433Z,19.37
2019-05-25T10:07:17.901Z,16.97
2019-05-25T10:09:43.810Z,20.32
2019-05-25T10:12:09.673Z,16.40
2019-05-25T10:14:36.002Z,19.42
2019-05-25T10:17:01.872Z,17.05
2019-05-25T10:19:28.978Z,15.83
2019-05-25T10:21:54.795Z,17.50
2019-05-25T10:24:22.013Z,17.55
2019-05-25T10:26:47.853Z,16.30
2019-05-25T10:29:13.721Z,17.87
2019-05-25T10:31:39.532Z,17.62
2019-05-25T10:34:05.677Z,15.72
2019-05-25T10:36:31.518Z,18.23
2019-05-25T10:38:57.355Z,16.52
2019-05-25T10:41:27.493Z,15.03
2019-05-25T10:43:54.270Z,18.57
2019-05-25T10:46:24.742Z,15.60
2019-05-25T10:48:51.240Z,21.25
2019-05-25T10:51:17.181Z,19.90
2019-05-25T10:53:43.446Z,16.17
2019-05-25T10:56:09.314Z,17.15
2019-05-25T10:58:35.149Z,15.00
2019-05-25T11:01:00.973Z,20.52
2019-05-25T11:03:27.152Z,19.20
2019-05-25T11:05:52.993Z,16.67
2019-05-25T11:08:18.825Z,16.48
2019-05-25T11:10:45.352Z,19.35
2019-05-25T11:13:11.564Z,17.12
2019-05-25T11:15:37.400Z,18.12
2019-05-25T11:18:03.282Z,17.40
2019-05-25T11:20:29.150Z,16.77
2019-05-25T11:22:55.661Z,16.00
2019-05-25T11:25:21.911Z,13.62
2019-05-25T11:27:47.812Z,17.02
2019-05-25T11:30:13.778Z,15.98
2019-05-25T11:32:39.950Z,16.25
2019-05-25T11:35:05.897Z,14.83
2019-05-25T11:37:31.784Z,16.73
2019-05-25T11:39:57.619Z,14.80
2019-05-25T11:42:23.490Z,15.78
2019-05-25T11:44:49.850Z,16.48
2019-05-25T11:47:16.074Z,16.80
2019-05-25T11:49:42.304Z,15.05
2019-05-25T11:52:08.171Z,13.70
2019-05-25T11:54:34.354Z,11.03
2019-05-25T11:57:00.474Z,12.55
2019-05-25T11:59:26.637Z,16.10
2019-05-25T12:01:52.537Z,13.43
2019-05-25T12:04:18.363Z,10.68
2019-05-25T12:06:44.237Z,12.10
2019-05-25T12:09:10.143Z,11.12
2019-05-25T12:11:36.522Z,9.73
2019-05-25T12:14:02.706Z,9.20
2019-05-25T12:16:28.937Z,10.08
2019-05-25T12:18:55.159Z,9.25
2019-05-25T12:21:21.541Z,9.55
2019-05-25T12:23:47.502Z,10.00
2019-05-25T12:26:13.715Z,11.15
2019-05-25T12:28:39.629Z,8.40
2019-05-25T12:31:05.766Z,9.20
2019-05-25T12:33:31.970Z,11.90
2019-05-25T12:35:57.851Z,5.67
2019-05-25T12:38:23.679Z,7.85
2019-05-25T12:40:53.607Z,7.58
2019-05-25T12:43:17.747Z,6.85
2019-05-25T12:45:44.073Z,6.90
2019-05-25T12:48:09.936Z,5.72
2019-05-25T12:50:35.814Z,4.97
2019-05-25T12:53:01.714Z,6.62
2019-05-25T12:55:27.986Z,8.13
2019-05-25T12:57:53.838Z,4.35
2019-05-25T13:00:19.961Z,6.75
2019-05-25T13:02:46.050Z,6.20
2019-05-25T13:05:11.882Z,9.23
2019-05-25T13:07:38.187Z,8.80
2019-05-25T13:10:05.046Z,10.40
2019-05-25T13:12:30.868Z,7.03
2019-05-25T13:14:56.761Z,6.90
2019-05-25T13:17:22.980Z,5.72
2019-05-25T13:19:48.802Z,4.78
2019-05-25T13:22:14.994Z,9.25
2019-05-25T13:24:40.895Z,6.35
2019-05-25T13:27:06.771Z,9.03
2019-05-25T13:29:32.584Z,8.43
2019-05-25T13:31:58.443Z,6.33
2019-05-25T13:34:24.921Z,9.30
2019-05-25T13:36:51.150Z,5.00
2019-05-25T13:39:17.400Z,4.47
2019-05-25T13:41:44.101Z,7.05
2019-05-25T13:44:10.328Z,5.97
2019-05-25T13:46:36.791Z,6.97
2019-05-25T13:49:02.627Z,8.38
2019-05-25T13:51:28.833Z,6.92
2019-05-25T13:53:55.062Z,7.78
2019-05-25T13:56:20.921Z,7.70
2019-05-25T13:58:47.075Z,5.70
2019-05-25T14:01:27.464Z,4.67
2019-05-25T14:03:40.958Z,7.08
2019-05-25T14:06:06.788Z,6.47
2019-05-25T14:08:32.738Z,5.28
2019-05-25T14:10:59.494Z,6.67
2019-05-25T14:13:27.096Z,8.15
2019-05-25T14:16:06.202Z,7.90
2019-05-25T14:18:21.457Z,7.92
2019-05-25T14:20:47.683Z,6.35
2019-05-25T14:23:13.563Z,8.45
2019-05-25T14:25:39.689Z,9.45
2019-05-25T14:28:05.825Z,10.13
2019-05-25T14:30:31.937Z,9.78
2019-05-25T14:32:57.781Z,9.33
2019-05-25T14:35:23.753Z,9.83
2019-05-25T14:37:49.601Z,9.30
2019-05-25T14:40:15.478Z,8.60
2019-05-25T14:42:41.706Z,6.85
2019-05-25T14:45:07.585Z,9.25
2019-05-25T14:47:33.769Z,6.47
2019-05-25T14:49:59.625Z,10.03
2019-05-25T14:52:25.810Z,8.65
2019-05-25T14:54:51.713Z,6.42
2019-05-25T14:57:17.854Z,7.20
2019-05-25T14:59:44.098Z,5.53
2019-05-25T15:02:09.993Z,7.75
2019-05-25T15:04:36.131Z,9.33
2019-05-25T15:07:02.054Z,7.33
2019-05-25T15:09:28.349Z,8.65
2019-05-25T15:11:54.310Z,7.20
2019-05-25T15:14:20.303Z,8.53
2019-05-25T15:16:46.388Z,7.12
2019-05-25T15:19:12.738Z,8.10
2019-05-25T15:21:38.800Z,7.47
2019-05-25T15:24:04.885Z,7.15
2019-05-25T15:26:31.053Z,7.80
2019-05-25T15:28:56.896Z,5.78
2019-05-25T15:31:23.014Z,9.38
2019-05-25T15:33:48.890Z,8.50
2019-05-25T15:36:14.979Z,9.33
2019-05-25T15:38:41.349Z,12.85
2019-05-25T15:41:07.175Z,7.50
2019-05-25T15:43:33.773Z,9.85
2019-05-25T15:46:00.881Z,8.50
2019-05-25T15:48:26.712Z,6.20
2019-05-25T15:50:52.868Z,11.43
2019-05-25T15:53:18.758Z,10.98
2019-05-25T15:55:44.715Z,8.03
2019-05-25T15:58:10.875Z,8.35
2019-05-25T16:00:46.789Z,8.08
2019-05-25T16:03:13.230Z,8.65
2019-05-25T16:05:39.278Z,7.25
2019-05-25T16:08:05.166Z,12.35
2019-05-25T16:10:31.702Z,10.03
2019-05-25T16:12:57.525Z,11.55
2019-05-25T16:15:26.533Z,10.25
2019-05-25T16:17:52.365Z,10.93
2019-05-25T16:20:20.371Z,10.35
2019-05-25T16:22:46.886Z,13.50
2019-05-25T16:25:13.123Z,12.05
2019-05-25T16:27:39.006Z,9.40
2019-05-25T16:30:05.234Z,13.25
2019-05-25T16:32:31.056Z,7.60
2019-05-25T16:34:56.955Z,7.58
2019-05-25T16:37:23.070Z,8.65
2019-05-25T16:39:49.144Z,7.60
2019-05-25T16:42:15.318Z,10.28
2019-05-25T16:44:41.138Z,9.30
2019-05-25T16:47:07.565Z,14.85
2019-05-25T16:49:33.799Z,9.10
2019-05-25T16:52:00.026Z,10.25
2019-05-25T16:54:26.155Z,10.75
2019-05-25T16:56:52.045Z,12.20
2019-05-25T16:59:18.301Z,8.95
2019-05-25T17:01:48.572Z,11.20
2019-05-25T17:04:12.467Z,12.73
2019-05-25T17:06:38.628Z,9.35
2019-05-25T17:09:06.919Z,8.65
2019-05-25T17:11:32.855Z,15.13
2019-05-25T17:13:58.742Z,10.63
2019-05-25T17:16:24.572Z,8.68
2019-05-25T17:18:50.425Z,13.72
2019-05-25T17:21:16.306Z,8.78
2019-05-25T17:23:42.143Z,9.50
2019-05-25T17:26:07.999Z,7.85
2019-05-25T17:28:33.852Z,10.30
2019-05-25T17:31:00.033Z,10.58
2019-05-25T17:33:25.869Z,9.75
2019-05-25T17:35:51.793Z,8.53
2019-05-25T17:38:17.632Z,8.35
2019-05-25T17:40:43.486Z,9.65
2019-05-25T17:43:09.326Z,10.18
2019-05-25T17:45:35.463Z,12.90
2019-05-25T17:48:01.389Z,10.80
2019-05-25T17:50:27.512Z,9.05
2019-05-25T17:52:53.767Z,7.25
2019-05-25T17:55:19.727Z,8.30
2019-05-25T17:57:45.618Z,10.20
2019-05-25T18:00:11.575Z,11.50
2019-05-25T18:02:37.410Z,9.88
2019-05-25T18:05:04.259Z,8.50
2019-05-25T18:07:30.082Z,8.58
2019-05-25T18:09:56.373Z,12.18
2019-05-25T18:12:22.285Z,9.38
2019-05-25T18:14:48.225Z,9.40
2019-05-25T18:17:14.771Z,7.47
2019-05-25T18:19:40.644Z,11.70
2019-05-25T18:22:06.524Z,8.70
2019-05-25T18:24:32.358Z,8.58
2019-05-25T18:26:58.889Z,9.78
2019-05-25T18:29:24.759Z,6.87
2019-05-25T18:31:51.011Z,11.45
2019-05-25T18:34:22.038Z,10.60
2019-05-25T18:36:45.850Z,8.13
2019-05-25T18:39:11.698Z,13.55
2019-05-25T18:41:38.294Z,13.65
2019-05-25T18:44:04.177Z,8.53
2019-05-25T18:46:30.852Z,8.13
2019-05-25T18:48:57.269Z,12.63
2019-05-25T18:51:23.735Z,11.60
2019-05-25T18:53:49.876Z,11.05
2019-05-25T18:56:15.720Z,7.53
2019-05-25T18:58:42.237Z,12.18
2019-05-25T19:01:08.087Z,6.10
2019-05-25T19:03:33.906Z,8.83
2019-05-25T19:05:59.801Z,7.45
2019-05-25T19:08:25.675Z,11.85
2019-05-25T19:10:51.538Z,7.35
2019-05-25T19:13:17.550Z,10.18
2019-05-25T19:15:44.271Z,9.08
2019-05-25T19:18:10.119Z,8.15
2019-05-25T19:20:35.998Z,8.40
2019-05-25T19:23:01.978Z,11.88
2019-05-25T19:25:27.818Z,12.23
2019-05-25T19:27:53.930Z,11.55
2019-05-25T19:30:19.786Z,7.25
2019-05-25T19:32:45.683Z,10.40
2019-05-25T19:35:11.760Z,8.45
2019-05-25T19:37:37.640Z,11.43
2019-05-25T19:40:08.694Z,10.58
2019-05-25T19:42:32.401Z,7.83
2019-05-25T19:44:58.289Z,8.63
2019-05-25T19:47:24.139Z,8.40
2019-05-25T19:49:49.991Z,8.73
2019-05-25T19:52:15.877Z,5.80
2019-05-25T19:54:42.187Z,9.33
2019-05-25T19:57:08.064Z,6.75
2019-05-25T19:59:34.219Z,5.90
2019-05-25T20:02:00.020Z,9.65
2019-05-25T20:04:25.885Z,10.00
2019-05-25T20:06:51.783Z,9.58
2019-05-25T20:09:18.297Z,9.43
2019-05-25T20:11:44.536Z,8.73
2019-05-25T20:14:10.413Z,5.40
2019-05-25T20:16:36.362Z,10.53
2019-05-25T20:19:03.815Z,10.82
2019-05-25T20:21:29.673Z,10.00
2019-05-25T20:23:55.522Z,10.23
2019-05-25T20:26:21.605Z,8.73
2019-05-25T20:28:50.684Z,8.45
2019-05-25T20:31:15.616Z,10.05
2019-05-25T20:33:42.233Z,6.58
2019-05-25T20:36:08.059Z,8.93
2019-05-25T20:38:34.278Z,8.30
2019-05-25T20:41:00.113Z,16.95
2019-05-25T20:43:26.332Z,12.53
2019-05-25T20:45:53.084Z,10.65
2019-05-25T20:48:19.923Z,11.50
2019-05-25T20:50:46.248Z,10.85
2019-05-25T20:53:12.713Z,10.28
2019-05-25T20:55:38.762Z,9.60
2019-05-25T20:58:04.909Z,8.60
2019-05-25T21:00:30.933Z,13.35
2019-05-25T21:03:06.223Z,8.63
2019-05-25T21:05:24.709Z,9.28
2019-05-25T21:07:51.033Z,10.03
2019-05-25T21:10:16.781Z,8.50
2019-05-25T21:12:43.000Z,10.25
2019-05-25T21:15:08.825Z,9.03
2019-05-25T21:17:35.525Z,10.18
2019-05-25T21:20:01.352Z,11.20
2019-05-25T21:22:27.299Z,11.93
2019-05-25T21:24:53.739Z,11.00
2019-05-25T21:27:19.630Z,10.38
2019-05-25T21:29:45.476Z,9.80
2019-05-25T21:32:11.322Z,13.25
2019-05-25T21:34:37.415Z,13.30
2019-05-25T21:37:03.757Z,10.85
2019-05-25T21:39:29.887Z,15.32
2019-05-25T21:41:55.715Z,14.43
2019-05-25T21:44:22.094Z,10.65
2019-05-25T21:46:48.429Z,15.15
2019-05-25T21:49:14.630Z,12.68
2019-05-25T21:51:40.893Z,8.15
2019-05-25T21:54:07.176Z,12.70
2019-05-25T21:56:33.118Z,12.18
2019-05-25T21:58:58.978Z,15.25
2019-05-25T22:01:25.110Z,13.95
2019-05-25T22:03:51.462Z,12.98
2019-05-25T22:06:24.223Z,16.35
2019-05-25T22:08:45.497Z,13.15
2019-05-25T22:11:11.918Z,13.68
2019-05-25T22:13:42.358Z,13.48
2019-05-25T22:16:08.207Z,15.08
2019-05-25T22:18:34.381Z,15.23
2019-05-25T22:21:00.185Z,14.87
2019-05-25T22:23:26.327Z,13.55
2019-05-25T22:25:52.157Z,16.80
2019-05-25T22:28:18.283Z,18.48
2019-05-25T22:30:44.403Z,14.95
2019-05-25T22:33:10.232Z,12.25
2019-05-25T22:35:36.216Z,11.38
2019-05-25T22:38:02.040Z,12.35
2019-05-25T22:40:27.882Z,15.30
2019-05-25T22:42:53.750Z,15.50
2019-05-25T22:45:19.608Z,17.57
2019-05-25T22:47:45.491Z,14.20
2019-05-25T22:50:11.597Z,15.88
2019-05-25T22:52:37.469Z,14.80
2019-05-25T22:55:04.564Z,17.87
2019-05-25T22:57:30.685Z,15.38
2019-05-25T22:59:58.741Z,17.32
2019-05-25T23:02:25.299Z,15.65
2019-05-25T23:04:51.673Z,16.65
2019-05-25T23:07:17.554Z,20.40
2019-05-25T23:09:43.395Z,15.38
2019-05-25T23:12:11.084Z,19.60
2019-05-25T23:14:37.617Z,15.63
2019-05-25T23:17:03.549Z,17.60
2019-05-25T23:19:29.675Z,20.68
2019-05-25T23:21:57.230Z,12.15
2019-05-25T23:24:23.039Z,18.75
2019-05-25T23:26:50.366Z,15.32
2019-05-25T23:29:16.181Z,15.60
2019-05-25T23:31:42.274Z,16.17
2019-05-25T23:34:08.176Z,18.67
2019-05-25T23:36:33.982Z,16.32
2019-05-25T23:38:59.826Z,19.30
2019-05-25T23:41:26.493Z,19.45
2019-05-25T23:43:52.783Z,15.35
2019-05-25T23:46:19.609Z,12.73
2019-05-25T23:48:45.718Z,16.85
2019-05-25T23:51:12.372Z,21.35
2019-05-25T23:53:39.168Z,20.12
2019-05-25T23:56:05.651Z,16.30
2019-05-25T23:58:31.602Z,17.30
